Time;durP1;ratioP1;P1;durP2;ratioP2;P2;SDS_P1;SDS_P2;PMS_P1;PMS_P2;Temp;Humidity;BMP_temperature;BMP_pressure;BME280_temperature;BME280_humidity;BME280_pressure;Samples;Min_cycle;Max_cycle;Signal;HPM_P1;HPM_P2
2023/07/27 00:00:56;;;;;;;9.38;7.47;;;;;;;18.74;100.00;64947.84;5050131;28;20220;-51
2023/07/27 00:03:22;;;;;;;9.63;8.70;;;;;;;18.82;100.00;64954.66;5050568;28;20236;-53
2023/07/27 00:05:48;;;;;;;9.90;8.57;;;;;;;18.81;100.00;64953.56;5015966;28;20220;-52
2023/07/27 00:08:13;;;;;;;10.07;8.20;;;;;;;18.78;100.00;64949.69;5050224;28;20576;-52
2023/07/27 00:10:41;;;;;;;9.93;8.27;;;;;;;18.76;100.00;64952.59;5049562;28;20225;-53
2023/07/27 00:13:07;;;;;;;9.88;8.85;;;;;;;18.67;100.00;64937.56;5050209;28;20197;-52
2023/07/27 00:15:33;;;;;;;10.48;8.23;;;;;;;18.58;100.00;64930.19;5050023;28;20643;-51
2023/07/27 00:18:00;;;;;;;11.05;9.18;;;;;;;18.59;100.00;64929.28;5049921;28;20284;-50
2023/07/27 00:20:26;;;;;;;7.95;7.00;;;;;;;18.50;100.00;64921.91;5049811;28;20306;-54
2023/07/27 00:22:51;;;;;;;10.50;7.30;;;;;;;18.46;100.00;64914.41;5049957;28;20679;-52
2023/07/27 00:25:17;;;;;;;7.30;5.95;;;;;;;18.34;100.00;64904.25;5050150;28;20202;-51
2023/07/27 00:27:42;;;;;;;5.80;5.20;;;;;;;18.28;100.00;64897.63;5049960;28;20205;-51
2023/07/27 00:30:08;;;;;;;5.50;4.95;;;;;;;18.26;100.00;64895.97;5050004;28;20300;-55
2023/07/27 00:32:33;;;;;;;6.28;4.70;;;;;;;18.26;100.00;64895.97;5049816;28;20287;-53
2023/07/27 00:34:59;;;;;;;5.30;4.45;;;;;;;18.07;100.00;64875.03;5050044;28;20567;-52
2023/07/27 00:37:25;;;;;;;5.55;4.20;;;;;;;18.11;100.00;64878.88;5049615;28;20701;-52
2023/07/27 00:39:51;;;;;;;12.32;5.20;;;;;;;17.97;100.00;64864.00;5050405;28;20201;-53
2023/07/27 00:42:17;;;;;;;4.85;4.45;;;;;;;17.92;100.00;64858.47;5048560;28;20283;-53
2023/07/27 00:44:42;;;;;;;5.70;4.15;;;;;;;17.96;100.00;64862.31;5032079;28;20640;-52
2023/07/27 00:47:08;;;;;;;6.28;5.15;;;;;;;17.93;100.00;64856.47;5049793;28;20270;-52
2023/07/27 00:49:34;;;;;;;5.38;4.43;;;;;;;17.91;100.00;64857.38;5049792;28;20288;-53
2023/07/27 00:52:05;;;;;;;7.38;4.20;;;;;;;17.86;100.00;64851.84;5050129;28;20676;-54
2023/07/27 00:54:31;;;;;;;5.20;4.25;;;;;;;17.90;100.00;64855.72;5048616;28;20297;-53
2023/07/27 00:56:58;;;;;;;5.00;4.30;;;;;;;17.86;100.00;64851.31;5049719;28;20284;-52
2023/07/27 00:59:23;;;;;;;6.30;4.30;;;;;;;17.87;100.00;64852.97;5031881;28;20210;-52
2023/07/27 01:01:50;;;;;;;6.80;4.10;;;;;;;17.62;100.00;64825.41;5031627;28;20213;-52
2023/07/27 01:04:16;;;;;;;3.83;3.42;;;;;;;17.70;100.00;64833.66;5075834;22;20239;-52
2023/07/27 01:06:41;;;;;;;4.03;3.63;;;;;;;17.72;100.00;64835.88;5060162;28;20205;-53
2023/07/27 01:09:07;;;;;;;3.83;3.22;;;;;;;17.69;100.00;64835.13;5049404;28;20209;-58
2023/07/27 01:11:47;;;;;;;3.65;3.35;;;;;;;17.70;100.00;64834.22;5049411;28;20221;-53
2023/07/27 01:14:29;;;;;;;3.13;2.83;;;;;;;17.61;99.30;64821.75;5049497;28;20259;-51
2023/07/27 01:17:03;;;;;;;6.00;2.60;;;;;;;17.52;99.08;64814.94;5049302;28;20209;-52
2023/07/27 01:19:59;;;;;;;2.75;2.00;;;;;;;17.43;99.72;64801.91;5049454;28;20212;-51
2023/07/27 01:22:30;;;;;;;3.33;2.60;;;;;;;17.42;99.96;64803.34;5049750;28;20216;-52
2023/07/27 01:25:28;;;;;;;4.13;2.80;;;;;;;17.43;99.84;64804.44;5051321;28;20205;-53
2023/07/27 01:28:07;;;;;;;2.33;2.13;;;;;;;17.38;99.70;64798.94;5052236;28;20731;-52
2023/07/27 01:31:01;;;;;;;3.20;2.47;;;;;;;17.37;99.78;64797.84;5052743;28;20223;-52
2023/07/27 01:33:31;;;;;;;2.20;2.00;;;;;;;17.36;99.68;64796.72;5034888;28;20209;-52
2023/07/27 01:36:12;;;;;;;6.10;2.10;;;;;;;17.38;99.34;64799.50;5051244;28;20278;-50
2023/07/27 01:38:42;;;;;;;2.40;2.20;;;;;;;17.34;98.89;64794.53;5052667;28;20200;-51
2023/07/27 01:41:09;;;;;;;2.88;2.60;;;;;;;17.38;98.09;64798.94;5052488;28;20245;-52
2023/07/27 01:43:36;;;;;;;3.05;2.28;;;;;;;17.31;98.51;64791.22;5052780;28;20209;-52
2023/07/27 01:46:04;;;;;;;2.80;2.60;;;;;;;17.34;98.09;64794.53;5052327;28;20209;-51
2023/07/27 01:48:32;;;;;;;2.60;2.40;;;;;;;17.31;98.29;64791.22;5052214;28;20205;-52
2023/07/27 01:50:58;;;;;;;2.38;2.17;;;;;;;17.37;97.88;64795.81;5052262;28;20266;-51
2023/07/27 01:53:26;;;;;;;6.40;2.50;;;;;;;17.38;97.72;64798.94;5052433;28;20284;-52
2023/07/27 01:55:54;;;;;;;3.78;2.55;;;;;;;17.30;97.89;64787.56;5052287;28;20204;-55
2023/07/27 01:58:20;;;;;;;4.10;2.72;;;;;;;17.22;99.06;64778.75;5052288;28;20217;-52
2023/07/27 02:00:47;;;;;;;2.80;2.60;;;;;;;17.17;99.46;64778.88;5051297;28;20201;-52
2023/07/27 02:03:13;;;;;;;2.78;2.58;;;;;;;17.13;100.00;64768.84;5051957;28;20202;-53
2023/07/27 02:05:39;;;;;;;3.70;2.97;;;;;;;17.18;99.99;64777.44;5052317;28;20558;-53
2023/07/27 02:08:05;;;;;;;3.83;3.53;;;;;;;17.08;100.00;64765.88;5052362;28;20202;-51
2023/07/27 02:10:32;;;;;;;3.80;2.92;;;;;;;17.08;100.00;64768.44;5052223;28;20224;-52
2023/07/27 02:13:09;;;;;;;4.00;3.58;;;;;;;17.09;100.00;64767.53;5052204;28;20587;-52
2023/07/27 02:15:45;;;;;;;4.38;3.60;;;;;;;17.09;100.00;64764.97;5051846;28;20197;-52
2023/07/27 02:18:15;;;;;;;4.10;3.70;;;;;;;17.05;100.00;64763.13;5051897;28;20209;-51
2023/07/27 02:20:43;;;;;;;3.92;3.08;;;;;;;17.01;100.00;64755.63;5051974;28;20198;-52
2023/07/27 02:23:11;;;;;;;4.50;4.10;;;;;;;17.02;100.00;64759.81;5052399;28;20240;-52
2023/07/27 02:25:37;;;;;;;5.40;4.90;;;;;;;17.03;100.00;64760.91;5034032;28;20190;-53
2023/07/27 02:28:03;;;;;;;5.60;4.60;;;;;;;17.01;100.00;64758.72;5051693;28;20224;-52
2023/07/27 02:30:28;;;;;;;5.28;4.78;;;;;;;17.06;100.00;64763.69;5051633;28;20625;-51
2023/07/27 02:32:54;;;;;;;5.28;4.82;;;;;;;17.09;100.00;64764.44;5052065;28;20209;-53
2023/07/27 02:35:20;;;;;;;5.45;5.05;;;;;;;17.16;100.00;64772.16;5051673;28;20703;-51
2023/07/27 02:37:45;;;;;;;6.15;5.65;;;;;;;17.12;100.00;64770.84;5051820;28;20296;-52
2023/07/27 02:40:11;;;;;;;6.65;6.05;;;;;;;17.10;100.00;64766.09;5051857;28;20286;-52
2023/07/27 02:42:37;;;;;;;6.68;6.07;;;;;;;17.07;100.00;64764.78;5051732;28;20705;-52
2023/07/27 02:45:03;;;;;;;7.20;6.45;;;;;;;16.93;100.00;64749.38;5051610;28;20217;-51
2023/07/27 02:47:29;;;;;;;7.10;6.40;;;;;;;16.92;100.00;64748.25;5051948;28;20217;-52
2023/07/27 02:49:54;;;;;;;7.00;6.30;;;;;;;17.01;100.00;64755.63;5052115;28;20680;-54
2023/07/27 02:52:20;;;;;;;8.30;6.70;;;;;;;16.97;100.00;64754.31;5051926;28;20289;-52
2023/07/27 02:54:46;;;;;;;7.90;6.90;;;;;;;17.09;100.00;64767.00;5051618;28;20622;-52
2023/07/27 02:57:11;;;;;;;7.13;6.50;;;;;;;17.20;100.00;64779.66;5051649;28;20208;-52
2023/07/27 02:59:37;;;;;;;7.10;6.50;;;;;;;17.21;99.94;64780.22;5051471;28;20266;-51
2023/07/27 03:02:02;;;;;;;7.22;6.53;;;;;;;17.09;98.96;64769.53;5051556;28;20628;-51
2023/07/27 03:04:28;;;;;;;6.75;6.15;;;;;;;16.98;98.97;64754.88;5051472;28;20198;-53
2023/07/27 03:06:53;;;;;;;7.95;6.00;;;;;;;17.02;98.57;64759.28;5051207;28;20217;-52
2023/07/27 03:09:19;;;;;;;6.18;5.57;;;;;;;17.06;97.35;64764.22;5051442;28;20197;-53
2023/07/27 03:11:44;;;;;;;7.20;6.50;;;;;;;17.01;96.48;64758.72;5051250;28;20289;-52
2023/07/27 03:14:10;;;;;;;6.07;5.57;;;;;;;16.89;97.04;64742.94;5051181;28;20593;-52
2023/07/27 03:16:35;;;;;;;6.70;6.10;;;;;;;16.91;96.26;64745.16;5049649;28;20597;-51
2023/07/27 03:19:01;;;;;;;6.75;6.15;;;;;;;16.91;96.51;64744.63;5051582;28;20580;-52
2023/07/27 03:21:26;;;;;;;6.90;6.15;;;;;;;16.97;95.90;64753.78;5050999;28;20608;-52
2023/07/27 03:23:52;;;;;;;6.72;6.13;;;;;;;16.90;95.80;64743.50;5050932;28;20241;-52
2023/07/27 03:26:18;;;;;;;7.25;5.78;;;;;;;16.88;95.17;64743.84;5050745;28;20205;-51
2023/07/27 03:28:43;;;;;;;6.35;5.85;;;;;;;16.81;94.17;64736.16;5051294;28;20205;-56
2023/07/27 03:31:28;;;;;;;7.50;6.32;;;;;;;16.81;92.82;64736.16;5050865;28;20631;-53
2023/07/27 03:33:53;;;;;;;6.30;5.38;;;;;;;16.76;92.62;64729.19;5050916;28;20209;-51
2023/07/27 03:36:20;;;;;;;5.88;5.38;;;;;;;16.77;91.32;64732.28;5050814;28;20212;-51
2023/07/27 03:38:46;;;;;;;5.97;5.38;;;;;;;16.61;89.60;64715.22;5051251;28;20201;-52
2023/07/27 03:41:12;;;;;;;6.18;5.25;;;;;;;16.59;89.86;64710.47;5050694;28;20209;-53
2023/07/27 03:43:38;;;;;;;5.57;5.07;;;;;;;16.53;90.54;64706.41;5050592;28;20206;-51
2023/07/27 03:46:04;;;;;;;6.90;5.63;;;;;;;16.64;89.59;64718.50;5049980;28;20216;-54
2023/07/27 03:48:30;;;;;;;5.30;4.80;;;;;;;16.57;89.23;64708.28;5050416;28;20236;-53
2023/07/27 03:50:59;;;;;;;5.38;4.88;;;;;;;16.56;87.80;64709.69;5050423;28;20224;-52
2023/07/27 03:53:26;;;;;;;8.98;4.88;;;;;;;16.62;87.68;64715.78;5050376;28;20217;-53
2023/07/27 03:55:51;;;;;;;5.88;5.32;;;;;;;16.60;87.73;64716.66;5050407;28;20223;-53
2023/07/27 03:58:16;;;;;;;5.28;4.82;;;;;;;16.65;87.01;64719.63;5050801;28;20620;-53
2023/07/27 04:00:42;;;;;;;5.47;4.50;;;;;;;16.69;86.07;64724.03;5032668;28;20205;-51
2023/07/27 04:03:07;;;;;;;5.50;5.00;;;;;;;16.72;86.09;64724.78;5049010;28;20667;-53
2023/07/27 04:05:33;;;;;;;6.75;4.18;;;;;;;16.88;86.30;64743.84;5050273;28;20678;-52
2023/07/27 04:07:58;;;;;;;4.95;4.45;;;;;;;17.17;86.93;64773.25;5050378;28;20209;-53
2023/07/27 04:10:29;;;;;;;5.25;4.85;;;;;;;17.18;89.12;64774.91;5050248;28;20228;-54
2023/07/27 04:12:54;;;;;;;5.03;4.63;;;;;;;16.78;85.32;64733.94;5050159;28;20332;-57
2023/07/27 04:15:20;;;;;;;4.78;4.40;;;;;;;16.72;86.18;64726.78;5050055;28;20225;-54
2023/07/27 04:17:46;;;;;;;4.13;3.72;;;;;;;16.72;84.33;64726.78;5050148;28;20626;-53
2023/07/27 04:20:12;;;;;;;4.55;3.97;;;;;;;16.53;82.46;64706.41;5050387;28;20189;-53
2023/07/27 04:22:37;;;;;;;5.25;3.60;;;;;;;16.57;81.76;64710.25;5050550;28;20228;-52
2023/07/27 04:25:03;;;;;;;3.60;3.30;;;;;;;16.51;81.31;64706.75;5048747;28;20295;-54
2023/07/27 04:27:29;;;;;;;3.55;3.03;;;;;;;16.47;80.97;64699.22;5050482;28;20228;-53
2023/07/27 04:29:55;;;;;;;3.63;3.33;;;;;;;16.50;80.00;64697.47;5050427;28;20204;-54
2023/07/27 04:32:21;;;;;;;3.15;2.88;;;;;;;16.49;80.43;64702.00;5050127;28;20205;-53
2023/07/27 04:34:46;;;;;;;2.45;2.35;;;;;;;16.39;79.72;64687.88;5050508;28;20250;-52
2023/07/27 04:37:11;;;;;;;3.38;2.30;;;;;;;16.38;80.00;64689.88;5050114;28;20217;-53
2023/07/27 04:39:37;;;;;;;3.35;2.67;;;;;;;16.22;79.78;64669.72;5050154;28;20197;-55
2023/07/27 04:42:03;;;;;;;2.30;2.10;;;;;;;16.29;80.07;64679.97;5032052;28;20627;-53
2023/07/27 04:44:28;;;;;;;3.05;2.20;;;;;;;16.24;79.65;64671.91;5050398;28;20216;-52
2023/07/27 04:46:53;;;;;;;7.03;2.15;;;;;;;16.14;79.22;64660.91;5050010;28;20205;-52
2023/07/27 04:49:19;;;;;;;3.55;2.35;;;;;;;16.15;80.42;64664.00;5049946;28;20200;-53
2023/07/27 04:51:44;;;;;;;3.50;2.20;;;;;;;16.16;79.34;64662.56;5049735;28;20236;-52
2023/07/27 04:54:10;;;;;;;2.53;2.17;;;;;;;16.17;79.40;64666.75;5049758;28;20210;-52
2023/07/27 04:56:36;;;;;;;3.83;2.40;;;;;;;16.08;79.76;64656.84;5049875;28;20566;-52
2023/07/27 04:59:01;;;;;;;5.78;2.75;;;;;;;16.02;79.52;64647.69;5052619;28;20241;-53
2023/07/27 05:01:28;;;;;;;3.45;2.75;;;;;;;16.73;82.76;64725.88;5053017;28;20212;-52
2023/07/27 05:03:53;;;;;;;2.28;2.13;;;;;;;16.11;79.75;64659.59;5053436;28;20275;-53
2023/07/27 05:06:19;;;;;;;2.65;2.42;;;;;;;16.12;81.16;64660.72;5052868;28;20219;-53
2023/07/27 05:08:45;;;;;;;2.53;2.33;;;;;;;16.13;80.27;64659.25;5053280;28;20602;-53
2023/07/27 05:11:11;;;;;;;3.92;2.95;;;;;;;16.12;80.39;64658.16;5052972;28;20209;-53
2023/07/27 05:13:37;;;;;;;4.70;2.58;;;;;;;16.19;80.21;64671.50;5053394;28;20228;-53
2023/07/27 05:16:04;;;;;;;2.35;2.25;;;;;;;16.03;78.99;64650.78;5044589;22;20300;-53
2023/07/27 05:18:29;;;;;;;4.35;2.60;;;;;;;16.04;79.07;64654.97;5072755;28;20258;-53
2023/07/27 05:20:56;;;;;;;3.22;2.92;;;;;;;16.08;78.33;64656.84;5070437;28;20221;-52
2023/07/27 05:23:21;;;;;;;2.60;2.40;;;;;;;16.12;77.26;64658.16;5052719;28;20197;-53
2023/07/27 05:25:47;;;;;;;3.78;2.70;;;;;;;16.07;77.46;64655.75;5052942;28;20565;-52
2023/07/27 05:28:14;;;;;;;3.17;2.92;;;;;;;16.04;77.27;64649.38;5052292;28;20631;-52
2023/07/27 05:30:41;;;;;;;2.95;2.75;;;;;;;16.11;76.99;64660.16;5052198;28;20205;-54
2023/07/27 05:33:07;;;;;;;2.65;2.45;;;;;;;16.17;77.00;64663.66;5052610;28;20292;-53
2023/07/27 05:35:39;;;;;;;3.92;2.80;;;;;;;16.14;77.34;64663.44;5050053;28;20635;-54
2023/07/27 05:38:05;;;;;;;3.20;2.88;;;;;;;16.17;77.71;64663.66;5051090;28;20216;-54
2023/07/27 05:40:31;;;;;;;2.97;2.78;;;;;;;16.13;77.09;64661.81;5051250;28;20292;-54
2023/07/27 05:42:57;;;;;;;3.00;2.70;;;;;;;16.12;76.85;64660.72;5051413;28;20212;-52
2023/07/27 05:45:22;;;;;;;3.58;2.65;;;;;;;16.03;77.18;64651.34;5052767;28;20201;-53
2023/07/27 05:47:48;;;;;;;3.97;3.28;;;;;;;16.14;77.78;64663.44;5052571;28;20213;-55
2023/07/27 05:50:13;;;;;;;3.80;3.25;;;;;;;16.21;77.65;64671.16;5034708;28;20234;-53
2023/07/27 05:52:39;;;;;;;3.35;3.10;;;;;;;16.17;77.65;64664.22;5052702;28;20216;-53
2023/07/27 05:55:05;;;;;;;3.20;2.92;;;;;;;16.29;77.27;64679.97;5053007;28;20197;-55
2023/07/27 05:57:31;;;;;;;4.25;3.20;;;;;;;16.19;77.53;64666.41;5052711;28;20266;-54
2023/07/27 05:59:56;;;;;;;2.92;2.72;;;;;;;16.02;77.48;64650.25;5052536;28;20276;-55
2023/07/27 06:02:22;;;;;;;6.95;2.30;;;;;;;15.91;77.97;64638.16;5052765;28;20217;-54
2023/07/27 06:04:48;;;;;;;2.55;2.35;;;;;;;15.88;78.24;64632.84;5052748;28;20193;-54
2023/07/27 06:07:13;;;;;;;3.15;2.65;;;;;;;15.94;78.53;64641.44;5050955;28;20225;-54
2023/07/27 06:09:39;;;;;;;2.65;2.45;;;;;;;15.94;78.15;64642.00;5051645;28;20639;-54
2023/07/27 06:12:15;;;;;;;2.90;2.40;;;;;;;15.88;77.96;64632.84;5052221;28;20232;-54
2023/07/27 06:14:41;;;;;;;3.47;2.88;;;;;;;16.57;79.02;64708.28;5052333;28;20194;-54
2023/07/27 06:17:07;;;;;;;2.65;2.45;;;;;;;16.06;76.41;64654.63;5050605;28;20225;-55
2023/07/27 06:19:34;;;;;;;3.83;2.70;;;;;;;15.89;77.43;64638.50;5034235;28;20178;-55
2023/07/27 06:21:59;;;;;;;3.25;2.60;;;;;;;15.87;77.44;64633.75;5052065;28;20769;-54
2023/07/27 06:24:25;;;;;;;4.28;3.35;;;;;;;16.70;90.89;64725.13;5052331;28;20205;-55
2023/07/27 06:26:51;;;;;;;2.22;2.05;;;;;;;16.91;72.99;64744.63;5052284;28;20762;-65
2023/07/27 06:29:16;;;;;;;7.13;2.45;;;;;;;16.70;72.94;64725.13;5052296;28;20201;-54
2023/07/27 06:31:42;;;;;;;2.78;2.20;;;;;;;17.41;74.61;64802.78;5050358;28;20569;-54
2023/07/27 06:34:07;;;;;;;2.40;2.20;;;;;;;17.82;73.37;64850.00;5051830;28;20215;-54
2023/07/27 06:36:33;;;;;;;2.33;2.13;;;;;;;18.31;73.55;64901.50;5052125;28;20288;-53
2023/07/27 06:38:59;;;;;;;3.65;2.55;;;;;;;18.14;66.71;64879.66;5051989;28;20205;-55
2023/07/27 06:41:25;;;;;;;1.92;1.83;;;;;;;18.76;64.10;64945.50;5051891;28;20243;-56
2023/07/27 06:43:54;;;;;;;2.40;2.20;;;;;;;18.95;65.03;64968.44;5051796;28;20667;-53
2023/07/27 06:46:20;;;;;;;3.75;2.10;;;;;;;19.14;64.49;64991.97;5050388;28;20335;-55
2023/07/27 06:48:46;;;;;;;2.67;2.25;;;;;;;18.80;62.50;64951.91;5052035;28;20227;-54
2023/07/27 06:51:13;;;;;;;1.60;1.50;;;;;;;18.43;64.61;64914.75;5034084;28;20301;-54
2023/07/27 06:53:39;;;;;;;3.33;2.20;;;;;;;18.70;64.47;64940.88;5051747;28;20817;-54
2023/07/27 06:56:05;;;;;;;2.22;1.98;;;;;;;18.96;59.35;64967.00;5051851;28;20213;-54
2023/07/27 06:58:32;;;;;;;2.70;1.83;;;;;;;19.52;60.26;65030.84;5051882;28;20193;-54
2023/07/27 07:00:59;;;;;;;1.88;1.73;;;;;;;19.22;60.57;64998.81;5050388;28;20231;-53
2023/07/27 07:03:25;;;;;;;3.03;2.08;;;;;;;19.31;59.36;65008.19;5051570;28;20295;-54
2023/07/27 07:05:53;;;;;;;2.47;2.28;;;;;;;19.47;58.09;65022.78;5033709;28;20237;-54
2023/07/27 07:08:19;;;;;;;8.65;1.90;;;;;;;19.33;58.15;65009.84;5051512;28;20201;-57
2023/07/27 07:10:45;;;;;;;2.83;1.83;;;;;;;19.92;59.05;65075.00;5051370;28;20209;-52
2023/07/27 07:13:11;;;;;;;2.95;2.15;;;;;;;20.32;55.56;65116.66;5033909;28;20194;-54
2023/07/27 07:15:36;;;;;;;1.83;1.63;;;;;;;19.86;55.21;65066.38;5051892;28;20201;-53
2023/07/27 07:18:02;;;;;;;3.05;1.75;;;;;;;20.13;56.19;65098.22;5051307;28;20172;-54
2023/07/27 07:20:29;;;;;;;3.25;1.95;;;;;;;19.34;57.54;65010.97;5050105;28;20652;-55
2023/07/27 07:22:54;;;;;;;4.93;1.42;;;;;;;19.37;58.87;65017.41;5051265;28;20209;-53
2023/07/27 07:25:20;;;;;;;2.25;1.92;;;;;;;20.09;55.24;65093.78;5051488;28;20615;-52
2023/07/27 07:27:46;;;;;;;2.50;1.67;;;;;;;20.52;56.13;65138.75;5051039;28;20215;-52
2023/07/27 07:30:12;;;;;;;3.00;1.30;;;;;;;19.67;54.38;65045.41;5051221;28;20197;-54
2023/07/27 07:32:38;;;;;;;1.58;1.50;;;;;;;19.57;55.22;65036.94;5051360;28;20228;-54
2023/07/27 07:35:05;;;;;;;2.83;1.70;;;;;;;19.83;55.99;65060.53;5049762;28;20210;-54
2023/07/27 07:37:31;;;;;;;2.55;2.15;;;;;;;19.63;54.98;65040.44;5049654;28;20209;-54
2023/07/27 07:39:57;;;;;;;3.17;1.83;;;;;;;19.71;54.62;65052.38;5051004;28;20584;-57
2023/07/27 07:42:23;;;;;;;2.97;1.95;;;;;;;19.42;55.96;65020.34;5033402;28;20657;-55
2023/07/27 07:44:48;;;;;;;3.80;1.90;;;;;;;19.54;55.90;65033.03;5050126;28;20197;-54
2023/07/27 07:47:13;;;;;;;4.35;2.17;;;;;;;19.22;57.34;64996.25;5051328;28;20558;-54
2023/07/27 07:49:39;;;;;;;4.15;2.20;;;;;;;19.53;56.94;65029.94;5032919;28;20292;-54
2023/07/27 07:52:05;;;;;;;3.50;2.03;;;;;;;19.50;54.56;65026.06;5051234;28;20687;-54
2023/07/27 07:54:32;;;;;;;3.35;1.90;;;;;;;19.48;54.52;65024.41;5050936;28;20623;-54
2023/07/27 07:56:58;;;;;;;1.90;1.80;;;;;;;19.41;56.17;65019.25;5050909;28;20209;-59
2023/07/27 07:59:24;;;;;;;5.30;2.15;;;;;;;19.33;54.73;65012.97;5050830;28;20205;-55
2023/07/27 08:01:51;;;;;;;2.63;1.80;;;;;;;19.24;55.46;64997.91;5050860;28;20658;-54
2023/07/27 08:04:18;;;;;;;5.43;1.65;;;;;;;19.96;56.55;65082.53;5050770;28;20197;-54
2023/07/27 08:06:45;;;;;;;2.80;1.90;;;;;;;19.67;53.61;65045.41;5066051;22;20329;-55
2023/07/27 08:09:12;;;;;;;4.75;1.90;;;;;;;19.41;53.07;65019.25;5070949;28;20196;-54
2023/07/27 08:11:41;;;;;;;7.63;2.10;;;;;;;19.46;53.30;65022.22;5061783;28;20251;-54
2023/07/27 08:14:08;;;;;;;2.88;1.48;;;;;;;19.71;53.65;65051.81;5050574;28;20201;-54
2023/07/27 08:16:33;;;;;;;3.92;1.88;;;;;;;19.77;52.18;65056.44;5050893;28;20224;-53
2023/07/27 08:19:00;;;;;;;5.15;1.98;;;;;;;19.73;51.32;65054.03;5050433;28;20620;-58
2023/07/27 08:21:25;;;;;;;2.92;1.52;;;;;;;19.55;52.25;65032.16;5049389;28;20213;-54
2023/07/27 08:23:52;;;;;;;2.35;1.80;;;;;;;19.57;51.58;65039.47;5050399;28;20284;-55
2023/07/27 08:26:17;;;;;;;2.20;2.00;;;;;;;19.50;50.81;65029.19;5016062;28;20279;-55
2023/07/27 08:28:43;;;;;;;4.65;1.70;;;;;;;19.42;52.43;65019.78;5050445;28;20174;-58
2023/07/27 08:31:08;;;;;;;4.60;1.70;;;;;;;19.49;51.94;65028.09;5049985;28;20221;-54
2023/07/27 08:33:34;;;;;;;4.05;1.50;;;;;;;19.50;53.14;65029.19;5049051;28;20220;-53
2023/07/27 08:36:00;;;;;;;7.82;1.55;;;;;;;19.65;51.57;65048.31;5050357;28;20218;-53
2023/07/27 08:38:27;;;;;;;7.70;1.73;;;;;;;19.38;51.33;65018.50;5050382;28;20211;-57
2023/07/27 08:40:59;;;;;;;5.28;2.22;;;;;;;19.20;52.21;64998.59;5050276;28;20288;-57
2023/07/27 08:43:25;;;;;;;6.57;2.15;;;;;;;19.41;51.59;65019.25;5050270;28;20288;-54
2023/07/27 08:45:52;;;;;;;3.80;1.40;;;;;;;19.63;52.47;65041.00;5050141;28;20209;-60
2023/07/27 08:48:18;;;;;;;2.92;1.65;;;;;;;20.04;52.18;65091.38;5050531;28;20205;-54
2023/07/27 08:50:46;;;;;;;2.50;1.60;;;;;;;19.75;51.50;65054.25;5050347;28;20216;-54
2023/07/27 08:53:13;;;;;;;3.67;1.33;;;;;;;19.72;51.95;65053.47;5050116;28;20201;-56
2023/07/27 08:55:42;;;;;;;3.97;1.42;;;;;;;19.81;51.60;65060.88;5049860;28;20199;-54
2023/07/27 08:58:09;;;;;;;3.55;1.50;;;;;;;19.93;51.82;65079.25;5050281;28;20209;-56
2023/07/27 09:00:35;;;;;;;2.55;1.50;;;;;;;20.14;50.62;65098.78;5049897;28;20210;-56
2023/07/27 09:03:01;;;;;;;2.38;1.40;;;;;;;20.20;50.91;65102.84;5048521;28;20278;-55
2023/07/27 09:05:43;;;;;;;3.60;1.33;;;;;;;20.16;50.97;65100.97;5049982;28;20210;-56
2023/07/27 09:08:11;;;;;;;2.38;1.52;;;;;;;19.90;51.41;65070.78;5031874;28;20209;-57
2023/07/27 09:10:40;;;;;;;3.58;1.40;;;;;;;20.15;50.29;65099.88;5050140;28;20216;-54
2023/07/27 09:13:06;;;;;;;3.30;1.52;;;;;;;20.03;50.57;65087.72;5032028;28;20292;-54
2023/07/27 09:15:34;;;;;;;3.90;1.63;;;;;;;20.06;50.83;65085.34;5049805;28;20241;-54
2023/07/27 09:18:01;;;;;;;3.35;1.88;;;;;;;20.32;50.37;65121.25;5050430;28;20254;-54
2023/07/27 09:20:31;;;;;;;4.10;1.52;;;;;;;20.24;50.45;65107.28;5049332;28;20209;-56
2023/07/27 09:22:57;;;;;;;2.35;1.40;;;;;;;20.31;50.79;65117.56;5049723;28;20212;-54
2023/07/27 09:25:24;;;;;;;2.50;1.20;;;;;;;20.63;51.04;65148.34;5049524;28;20648;-53
2023/07/27 09:28:00;;;;;;;2.45;1.48;;;;;;;20.48;50.66;65136.34;5049161;28;20230;-54
2023/07/27 09:30:26;;;;;;;9.40;1.48;;;;;;;20.50;49.08;65136.00;5049481;28;20284;-54
2023/07/27 09:32:54;;;;;;;1.75;1.33;;;;;;;20.31;49.04;65118.13;5049216;28;20221;-54
2023/07/27 09:35:21;;;;;;;6.65;1.83;;;;;;;20.77;49.61;65168.97;5047961;28;20197;-53
2023/07/27 09:37:51;;;;;;;4.88;1.38;;;;;;;20.75;49.34;65166.19;5049317;28;20233;-54
2023/07/27 09:40:19;;;;;;;4.05;1.45;;;;;;;20.77;49.95;65170.97;5049695;28;20209;-54
2023/07/27 09:42:45;;;;;;;3.58;1.55;;;;;;;20.74;49.67;65165.66;5031400;28;20209;-53
2023/07/27 09:45:12;;;;;;;3.40;1.60;;;;;;;20.69;49.88;65162.13;5051929;28;20204;-55
2023/07/27 09:47:40;;;;;;;7.25;1.85;;;;;;;20.71;49.36;65159.22;5052730;28;20243;-54
2023/07/27 09:50:06;;;;;;;5.93;1.98;;;;;;;20.89;49.97;65179.09;5052543;28;20225;-56
2023/07/27 09:52:35;;;;;;;5.78;2.05;;;;;;;20.69;48.77;65157.56;5052679;28;20213;-56
2023/07/27 09:55:01;;;;;;;3.92;1.65;;;;;;;20.66;48.98;65154.25;5052689;28;20197;-55
2023/07/27 09:57:27;;;;;;;7.05;1.80;;;;;;;21.08;48.21;65202.69;5052297;28;20228;-54
2023/07/27 09:59:54;;;;;;;5.15;1.80;;;;;;;21.17;47.48;65210.06;5052358;28;20205;-54
2023/07/27 10:02:22;;;;;;;4.95;1.60;;;;;;;20.99;48.02;65195.28;5052126;28;20211;-53
2023/07/27 10:04:50;;;;;;;4.40;1.58;;;;;;;21.16;46.98;65211.53;5052241;28;20255;-54
2023/07/27 10:07:19;;;;;;;3.95;1.30;;;;;;;21.06;46.79;65197.94;5052492;28;20210;-54
2023/07/27 10:09:45;;;;;;;6.57;1.80;;;;;;;21.04;47.11;65198.28;5034564;28;20201;-54
2023/07/27 10:12:27;;;;;;;3.22;1.70;;;;;;;21.27;47.21;65221.13;5052285;28;20225;-55
2023/07/27 10:15:25;;;;;;;3.17;1.65;;;;;;;21.56;46.68;65253.22;5052267;28;20254;-53
2023/07/27 10:17:54;;;;;;;9.38;1.67;;;;;;;21.48;45.51;65246.94;5052399;28;20251;-53
2023/07/27 10:20:26;;;;;;;2.72;1.67;;;;;;;21.49;44.53;65247.50;5052115;28;20200;-54
2023/07/27 10:23:07;;;;;;;1.55;1.20;;;;;;;21.62;44.94;65259.84;5051919;28;20201;-53
2023/07/27 10:25:57;;;;;;;2.03;1.50;;;;;;;22.02;45.00;65303.03;5052147;28;20209;-54
2023/07/27 10:28:31;;;;;;;1.50;1.40;;;;;;;22.04;45.22;65305.25;5051860;28;20266;-54
2023/07/27 10:31:23;;;;;;;3.47;1.48;;;;;;;22.04;43.54;65305.25;5034398;28;20210;-54
2023/07/27 10:34:16;;;;;;;2.70;2.08;;;;;;;22.19;43.33;65324.41;5040607;28;20264;-54
2023/07/27 10:36:57;;;;;;;2.72;1.50;;;;;;;22.28;41.80;65332.34;5033813;28;20226;-53
2023/07/27 10:39:42;;;;;;;4.20;1.70;;;;;;;21.81;42.28;65282.91;5051782;28;20189;-52
2023/07/27 10:42:13;;;;;;;3.17;1.60;;;;;;;21.93;43.23;65290.50;5052049;28;20216;-53
2023/07/27 10:44:46;;;;;;;3.70;1.75;;;;;;;22.25;42.73;65328.47;5051927;28;20291;-53
2023/07/27 10:47:20;;;;;;;2.78;1.85;;;;;;;22.72;42.49;65380.53;5051903;28;20280;-54
2023/07/27 10:49:49;;;;;;;3.28;1.52;;;;;;;23.00;41.17;65413.56;5051887;28;20196;-54
2023/07/27 10:52:17;;;;;;;3.33;1.88;;;;;;;22.98;41.06;65409.34;5051680;28;20228;-55
2023/07/27 10:54:44;;;;;;;3.85;1.55;;;;;;;22.66;40.96;65376.47;5051631;28;20204;-54
2023/07/27 10:57:12;;;;;;;2.17;1.75;;;;;;;22.61;42.06;65368.34;5051372;28;20252;-54
2023/07/27 10:59:40;;;;;;;2.67;1.73;;;;;;;22.89;41.50;65401.38;5051649;28;20170;-53
2023/07/27 11:02:29;;;;;;;3.40;1.80;;;;;;;22.86;41.53;65396.06;5051396;28;20241;-53
2023/07/27 11:04:59;;;;;;;11.85;2.00;;;;;;;22.85;41.35;65397.50;5033591;28;20201;-54
2023/07/27 11:07:35;;;;;;;2.20;1.55;;;;;;;22.41;41.63;65346.19;5051326;28;20220;-53
2023/07/27 11:10:04;;;;;;;1.60;1.50;;;;;;;22.55;41.83;65361.69;5033515;28;20201;-54
2023/07/27 11:12:30;;;;;;;4.05;1.65;;;;;;;22.68;40.93;65375.56;5051092;28;20263;-54
2023/07/27 11:15:33;;;;;;;3.53;1.83;;;;;;;22.69;41.53;65376.66;5051309;28;20189;-54
2023/07/27 11:18:02;;;;;;;3.67;2.60;;;;;;;22.54;41.53;65361.13;5050873;28;20229;-54
2023/07/27 11:20:31;;;;;;;4.20;2.30;;;;;;;22.72;41.76;65380.00;5051195;28;20263;-51
2023/07/27 11:22:58;;;;;;;4.05;2.15;;;;;;;22.87;41.82;65397.16;5033341;28;20221;-56
2023/07/27 11:25:24;;;;;;;3.65;1.60;;;;;;;23.08;40.42;65422.97;5051225;28;20217;-53
2023/07/27 11:27:51;;;;;;;8.43;1.95;;;;;;;22.66;40.54;65373.34;5033238;28;20209;-52
2023/07/27 11:30:21;;;;;;;4.70;1.70;;;;;;;22.79;41.25;65388.28;5050846;28;20204;-52
2023/07/27 11:33:04;;;;;;;7.15;2.30;;;;;;;22.99;40.60;65413.00;5050756;28;20225;-54
2023/07/27 11:35:30;;;;;;;1.80;1.60;;;;;;;23.25;39.83;65438.69;5051240;28;20221;-52